sensor_id;sensor_type;location;lat;lon;timestamp;temperature;humidity
42913;DHT22;50720;54.324;18.558;2023-02-28T00:00:03;-4.10;99.90
42913;DHT22;50720;54.324;18.558;2023-02-28T00:02:57;-4.10;99.90
42913;DHT22;50720;54.324;18.558;2023-02-28T00:05:28;-4.00;99.90
42913;DHT22;50720;54.324;18.558;2023-02-28T00:08:00;-4.10;99.90
42913;DHT22;50720;54.324;18.558;2023-02-28T00:10:30;-4.10;99.90
42913;DHT22;50720;54.324;18.558;2023-02-28T00:13:02;-4.20;99.90
42913;DHT22;50720;54.324;18.558;2023-02-28T00:15:32;-4.10;99.90
42913;DHT22;50720;54.324;18.558;2023-02-28T00:18:02;-4.10;99.90
42913;DHT22;50720;54.324;18.558;2023-02-28T00:20:32;-4.20;99.90
42913;DHT22;50720;54.324;18.558;2023-02-28T00:23:03;-4.10;99.90
42913;DHT22;50720;54.324;18.558;2023-02-28T00:25:33;-4.20;99.90
42913;DHT22;50720;54.324;18.558;2023-02-28T00:28:02;-4.20;99.90
42913;DHT22;50720;54.324;18.558;2023-02-28T00:30:32;-4.30;99.90
42913;DHT22;50720;54.324;18.558;2023-02-28T00:33:02;-4.20;99.90
42913;DHT22;50720;54.324;18.558;2023-02-28T00:35:32;-4.30;99.90
42913;DHT22;50720;54.324;18.558;2023-02-28T00:38:03;-4.30;99.90
42913;DHT22;50720;54.324;18.558;2023-02-28T00:40:33;-4.30;99.90
42913;DHT22;50720;54.324;18.558;2023-02-28T00:43:02;-4.30;99.90
42913;DHT22;50720;54.324;18.558;2023-02-28T00:45:33;-4.30;99.90
42913;DHT22;50720;54.324;18.558;2023-02-28T00:48:03;-4.40;99.90
42913;DHT22;50720;54.324;18.558;2023-02-28T00:50:32;-4.50;99.90
42913;DHT22;50720;54.324;18.558;2023-02-28T00:53:04;-4.50;99.90
42913;DHT22;50720;54.324;18.558;2023-02-28T00:55:33;-4.50;99.90
42913;DHT22;50720;54.324;18.558;2023-02-28T00:58:03;-4.50;99.90
42913;DHT22;50720;54.324;18.558;2023-02-28T01:00:33;-4.50;99.90
42913;DHT22;50720;54.324;18.558;2023-02-28T01:03:03;-4.50;99.90
42913;DHT22;50720;54.324;18.558;2023-02-28T01:05:33;-4.50;99.90
42913;DHT22;50720;54.324;18.558;2023-02-28T01:08:05;-4.60;99.90
42913;DHT22;50720;54.324;18.558;2023-02-28T01:10:34;-4.60;99.90
42913;DHT22;50720;54.324;18.558;2023-02-28T01:13:04;-4.70;99.90
42913;DHT22;50720;54.324;18.558;2023-02-28T01:15:34;-4.70;99.90
42913;DHT22;50720;54.324;18.558;2023-02-28T01:18:03;-4.70;99.90
42913;DHT22;50720;54.324;18.558;2023-02-28T01:20:33;-4.70;99.90
42913;DHT22;50720;54.324;18.558;2023-02-28T01:23:06;-4.70;99.90
42913;DHT22;50720;54.324;18.558;2023-02-28T01:25:36;-4.70;99.90
42913;DHT22;50720;54.324;18.558;2023-02-28T01:28:06;-4.70;99.90
42913;DHT22;50720;54.324;18.558;2023-02-28T01:30:36;-4.80;99.90
42913;DHT22;50720;54.324;18.558;2023-02-28T01:33:05;-4.80;99.90
42913;DHT22;50720;54.324;18.558;2023-02-28T01:35:36;-4.80;99.90
42913;DHT22;50720;54.324;18.558;2023-02-28T01:38:07;-4.80;99.90
42913;DHT22;50720;54.324;18.558;2023-02-28T01:40:50;-4.80;99.90
42913;DHT22;50720;54.324;18.558;2023-02-28T01:43:22;-4.80;99.90
42913;DHT22;50720;54.324;18.558;2023-02-28T01:45:53;-4.80;99.90
42913;DHT22;50720;54.324;18.558;2023-02-28T01:48:25;-4.80;99.90
42913;DHT22;50720;54.324;18.558;2023-02-28T01:50:59;-4.70;99.90
42913;DHT22;50720;54.324;18.558;2023-02-28T01:53:34;-4.70;99.90
42913;DHT22;50720;54.324;18.558;2023-02-28T01:56:07;-4.70;99.90
42913;DHT22;50720;54.324;18.558;2023-02-28T01:58:38;-4.70;99.90
42913;DHT22;50720;54.324;18.558;2023-02-28T02:01:07;-4.60;99.90
42913;DHT22;50720;54.324;18.558;2023-02-28T02:03:37;-4.60;99.90
42913;DHT22;50720;54.324;18.558;2023-02-28T02:06:08;-4.60;99.90
42913;DHT22;50720;54.324;18.558;2023-02-28T02:08:39;-4.60;99.90
42913;DHT22;50720;54.324;18.558;2023-02-28T02:11:10;-4.60;99.90
42913;DHT22;50720;54.324;18.558;2023-02-28T02:14:03;-4.60;99.90
42913;DHT22;50720;54.324;18.558;2023-02-28T02:16:45;-4.60;99.90
42913;DHT22;50720;54.324;18.558;2023-02-28T02:25:47;-4.70;99.90
42913;DHT22;50720;54.324;18.558;2023-02-28T02:31:55;-4.80;99.90
42913;DHT22;50720;54.324;18.558;2023-02-28T02:34:49;-4.80;99.90
42913;DHT22;50720;54.324;18.558;2023-02-28T02:37:27;-4.80;99.90
42913;DHT22;50720;54.324;18.558;2023-02-28T02:40:04;-4.90;99.90
42913;DHT22;50720;54.324;18.558;2023-02-28T02:42:41;-4.90;99.90
42913;DHT22;50720;54.324;18.558;2023-02-28T02:45:17;-5.00;99.90
42913;DHT22;50720;54.324;18.558;2023-02-28T02:47:48;-5.00;99.90
42913;DHT22;50720;54.324;18.558;2023-02-28T02:50:25;-4.90;99.90
42913;DHT22;50720;54.324;18.558;2023-02-28T02:52:57;-4.80;99.90
42913;DHT22;50720;54.324;18.558;2023-02-28T02:55:28;-4.90;99.90
42913;DHT22;50720;54.324;18.558;2023-02-28T02:58:01;-4.80;99.90
42913;DHT22;50720;54.324;18.558;2023-02-28T03:00:34;-4.90;99.90
42913;DHT22;50720;54.324;18.558;2023-02-28T03:03:06;-4.90;99.90
42913;DHT22;50720;54.324;18.558;2023-02-28T03:05:42;-4.80;99.90
42913;DHT22;50720;54.324;18.558;2023-02-28T03:08:14;-4.80;99.90
42913;DHT22;50720;54.324;18.558;2023-02-28T03:10:44;-4.90;99.90
42913;DHT22;50720;54.324;18.558;2023-02-28T03:19:34;-4.80;99.90
42913;DHT22;50720;54.324;18.558;2023-02-28T03:22:24;-4.80;99.90
42913;DHT22;50720;54.324;18.558;2023-02-28T03:25:04;-4.90;99.90
42913;DHT22;50720;54.324;18.558;2023-02-28T03:27:40;-5.10;99.90
42913;DHT22;50720;54.324;18.558;2023-02-28T03:30:16;-5.20;99.90
42913;DHT22;50720;54.324;18.558;2023-02-28T03:32:56;-5.20;99.90
42913;DHT22;50720;54.324;18.558;2023-02-28T03:35:28;-5.30;99.90
42913;DHT22;50720;54.324;18.558;2023-02-28T03:38:07;-5.30;99.90
42913;DHT22;50720;54.324;18.558;2023-02-28T03:40:45;-5.30;99.90
42913;DHT22;50720;54.324;18.558;2023-02-28T03:43:21;-5.30;99.90
42913;DHT22;50720;54.324;18.558;2023-02-28T03:45:52;-5.30;99.90
42913;DHT22;50720;54.324;18.558;2023-02-28T03:48:27;-5.30;99.90
42913;DHT22;50720;54.324;18.558;2023-02-28T03:51:00;-5.30;99.90
42913;DHT22;50720;54.324;18.558;2023-02-28T03:53:34;-5.30;99.90
42913;DHT22;50720;54.324;18.558;2023-02-28T03:56:08;-5.30;99.90
42913;DHT22;50720;54.324;18.558;2023-02-28T03:58:43;-5.20;99.90
42913;DHT22;50720;54.324;18.558;2023-02-28T04:01:20;-5.20;99.90
42913;DHT22;50720;54.324;18.558;2023-02-28T04:03:51;-5.10;99.90
42913;DHT22;50720;54.324;18.558;2023-02-28T04:06:22;-5.10;99.90
42913;DHT22;50720;54.324;18.558;2023-02-28T04:08:54;-5.10;99.90
42913;DHT22;50720;54.324;18.558;2023-02-28T04:11:27;-5.00;99.90
42913;DHT22;50720;54.324;18.558;2023-02-28T04:14:00;-4.90;99.90
42913;DHT22;50720;54.324;18.558;2023-02-28T04:16:30;-4.90;99.90
42913;DHT22;50720;54.324;18.558;2023-02-28T04:19:03;-4.80;99.90
42913;DHT22;50720;54.324;18.558;2023-02-28T04:21:35;-4.80;99.90
42913;DHT22;50720;54.324;18.558;2023-02-28T04:24:10;-4.80;99.90
42913;DHT22;50720;54.324;18.558;2023-02-28T04:26:43;-4.80;99.90
42913;DHT22;50720;54.324;18.558;2023-02-28T04:29:17;-4.70;99.90
42913;DHT22;50720;54.324;18.558;2023-02-28T04:31:47;-4.60;99.90
42913;DHT22;50720;54.324;18.558;2023-02-28T04:34:17;-4.60;99.90
42913;DHT22;50720;54.324;18.558;2023-02-28T04:36:48;-4.60;99.90
42913;DHT22;50720;54.324;18.558;2023-02-28T04:39:39;-4.60;99.90
42913;DHT22;50720;54.324;18.558;2023-02-28T04:42:09;-4.60;99.90
42913;DHT22;50720;54.324;18.558;2023-02-28T04:44:39;-4.60;99.90
42913;DHT22;50720;54.324;18.558;2023-02-28T04:47:09;-4.60;99.90
42913;DHT22;50720;54.324;18.558;2023-02-28T04:49:38;-4.50;99.90
42913;DHT22;50720;54.324;18.558;2023-02-28T04:52:09;-4.50;99.90
42913;DHT22;50720;54.324;18.558;2023-02-28T04:54:41;-4.50;99.90
42913;DHT22;50720;54.324;18.558;2023-02-28T04:57:10;-4.50;99.90
42913;DHT22;50720;54.324;18.558;2023-02-28T04:59:40;-4.50;99.90
42913;DHT22;50720;54.324;18.558;2023-02-28T05:02:09;-4.60;99.90
42913;DHT22;50720;54.324;18.558;2023-02-28T05:04:39;-4.50;99.90
42913;DHT22;50720;54.324;18.558;2023-02-28T05:07:09;-4.60;99.90
42913;DHT22;50720;54.324;18.558;2023-02-28T05:09:40;-4.60;99.90
42913;DHT22;50720;54.324;18.558;2023-02-28T05:12:10;-4.60;99.90
42913;DHT22;50720;54.324;18.558;2023-02-28T05:14:40;-4.70;99.90
42913;DHT22;50720;54.324;18.558;2023-02-28T05:17:10;-4.60;99.90
42913;DHT22;50720;54.324;18.558;2023-02-28T05:19:39;-4.70;99.90
42913;DHT22;50720;54.324;18.558;2023-02-28T05:22:13;-4.70;99.90
42913;DHT22;50720;54.324;18.558;2023-02-28T05:24:46;-4.70;99.90
42913;DHT22;50720;54.324;18.558;2023-02-28T05:27:15;-4.70;99.90
42913;DHT22;50720;54.324;18.558;2023-02-28T05:29:44;-4.70;99.90
42913;DHT22;50720;54.324;18.558;2023-02-28T05:32:14;-4.70;99.90
42913;DHT22;50720;54.324;18.558;2023-02-28T05:34:44;-4.60;99.90
42913;DHT22;50720;54.324;18.558;2023-02-28T05:37:14;-4.60;99.90
42913;DHT22;50720;54.324;18.558;2023-02-28T05:39:46;-4.60;99.90
42913;DHT22;50720;54.324;18.558;2023-02-28T05:42:16;-4.50;99.90
42913;DHT22;50720;54.324;18.558;2023-02-28T05:44:46;-4.40;99.90
42913;DHT22;50720;54.324;18.558;2023-02-28T05:47:16;-4.40;99.90
42913;DHT22;50720;54.324;18.558;2023-02-28T05:49:45;-4.40;99.90
42913;DHT22;50720;54.324;18.558;2023-02-28T05:52:15;-4.30;99.90
42913;DHT22;50720;54.324;18.558;2023-02-28T05:54:48;-4.40;99.90
42913;DHT22;50720;54.324;18.558;2023-02-28T05:57:17;-4.30;99.90
42913;DHT22;50720;54.324;18.558;2023-02-28T05:59:51;-4.30;99.90
42913;DHT22;50720;54.324;18.558;2023-02-28T06:02:21;-4.30;99.90
42913;DHT22;50720;54.324;18.558;2023-02-28T06:04:51;-4.20;99.90
42913;DHT22;50720;54.324;18.558;2023-02-28T06:07:20;-4.20;99.90
42913;DHT22;50720;54.324;18.558;2023-02-28T06:09:53;-4.10;99.90
42913;DHT22;50720;54.324;18.558;2023-02-28T06:12:22;-4.10;99.90
42913;DHT22;50720;54.324;18.558;2023-02-28T06:14:53;-4.00;99.90
42913;DHT22;50720;54.324;18.558;2023-02-28T06:17:22;-4.00;99.90
42913;DHT22;50720;54.324;18.558;2023-02-28T06:19:52;-4.00;99.90
42913;DHT22;50720;54.324;18.558;2023-02-28T06:22:22;-3.90;99.90
42913;DHT22;50720;54.324;18.558;2023-02-28T06:24:53;-3.90;99.90
42913;DHT22;50720;54.324;18.558;2023-02-28T06:27:23;-3.80;99.90
42913;DHT22;50720;54.324;18.558;2023-02-28T06:29:54;-3.80;99.90
42913;DHT22;50720;54.324;18.558;2023-02-28T06:32:24;-3.70;99.90
42913;DHT22;50720;54.324;18.558;2023-02-28T06:34:54;-3.60;99.90
42913;DHT22;50720;54.324;18.558;2023-02-28T06:37:25;-3.50;99.90
42913;DHT22;50720;54.324;18.558;2023-02-28T06:39:57;-3.40;99.90
42913;DHT22;50720;54.324;18.558;2023-02-28T06:42:26;-3.30;99.90
42913;DHT22;50720;54.324;18.558;2023-02-28T06:44:59;-3.10;99.90
42913;DHT22;50720;54.324;18.558;2023-02-28T06:47:31;-3.00;99.90
42913;DHT22;50720;54.324;18.558;2023-02-28T06:50:02;-2.90;99.90
42913;DHT22;50720;54.324;18.558;2023-02-28T06:52:31;-2.70;99.90
42913;DHT22;50720;54.324;18.558;2023-02-28T06:55:07;-2.60;99.90
42913;DHT22;50720;54.324;18.558;2023-02-28T06:57:36;-2.50;99.90
42913;DHT22;50720;54.324;18.558;2023-02-28T07:00:08;-2.40;99.90
42913;DHT22;50720;54.324;18.558;2023-02-28T07:02:38;-2.20;99.90
42913;DHT22;50720;54.324;18.558;2023-02-28T07:05:08;-2.10;99.90
42913;DHT22;50720;54.324;18.558;2023-02-28T07:07:38;-2.00;99.90
42913;DHT22;50720;54.324;18.558;2023-02-28T07:10:13;-1.90;99.90
42913;DHT22;50720;54.324;18.558;2023-02-28T07:12:46;-1.80;99.90
42913;DHT22;50720;54.324;18.558;2023-02-28T07:15:16;-1.70;99.90
42913;DHT22;50720;54.324;18.558;2023-02-28T07:17:46;-1.60;99.90
42913;DHT22;50720;54.324;18.558;2023-02-28T07:20:16;-1.60;99.90
42913;DHT22;50720;54.324;18.558;2023-02-28T07:22:46;-1.50;99.90
42913;DHT22;50720;54.324;18.558;2023-02-28T07:25:26;-1.50;99.90
42913;DHT22;50720;54.324;18.558;2023-02-28T07:27:56;-1.40;99.90
42913;DHT22;50720;54.324;18.558;2023-02-28T07:30:27;-1.30;99.90
42913;DHT22;50720;54.324;18.558;2023-02-28T07:32:56;-1.20;99.90
42913;DHT22;50720;54.324;18.558;2023-02-28T07:35:26;-1.10;99.90
42913;DHT22;50720;54.324;18.558;2023-02-28T07:37:57;-1.00;99.90
42913;DHT22;50720;54.324;18.558;2023-02-28T07:40:29;-0.90;99.90
42913;DHT22;50720;54.324;18.558;2023-02-28T07:42:59;-0.80;99.90
42913;DHT22;50720;54.324;18.558;2023-02-28T07:45:29;-0.70;99.90
42913;DHT22;50720;54.324;18.558;2023-02-28T07:48:02;-0.70;99.90
42913;DHT22;50720;54.324;18.558;2023-02-28T07:50:32;-0.60;99.90
42913;DHT22;50720;54.324;18.558;2023-02-28T07:53:02;-0.50;99.90
42913;DHT22;50720;54.324;18.558;2023-02-28T07:55:33;-0.40;99.90
42913;DHT22;50720;54.324;18.558;2023-02-28T07:58:03;-0.40;99.90
42913;DHT22;50720;54.324;18.558;2023-02-28T08:00:33;-0.40;99.90
42913;DHT22;50720;54.324;18.558;2023-02-28T08:03:02;-0.30;99.90
42913;DHT22;50720;54.324;18.558;2023-02-28T08:05:32;-0.20;99.90
42913;DHT22;50720;54.324;18.558;2023-02-28T08:08:01;-0.10;99.90
42913;DHT22;50720;54.324;18.558;2023-02-28T08:10:33;-0.10;99.90
42913;DHT22;50720;54.324;18.558;2023-02-28T08:13:02;-0.10;99.90
42913;DHT22;50720;54.324;18.558;2023-02-28T08:15:32;0.00;99.90
42913;DHT22;50720;54.324;18.558;2023-02-28T08:18:01;0.10;99.90
42913;DHT22;50720;54.324;18.558;2023-02-28T08:20:31;0.20;99.90
42913;DHT22;50720;54.324;18.558;2023-02-28T08:23:01;0.20;99.90
42913;DHT22;50720;54.324;18.558;2023-02-28T08:25:30;0.20;99.90
42913;DHT22;50720;54.324;18.558;2023-02-28T08:28:01;0.30;99.90
42913;DHT22;50720;54.324;18.558;2023-02-28T08:30:31;0.30;99.90
42913;DHT22;50720;54.324;18.558;2023-02-28T08:33:01;0.40;99.90
42913;DHT22;50720;54.324;18.558;2023-02-28T08:35:32;0.50;99.90
42913;DHT22;50720;54.324;18.558;2023-02-28T08:38:01;0.50;99.90
42913;DHT22;50720;54.324;18.558;2023-02-28T08:40:31;0.70;99.90
42913;DHT22;50720;54.324;18.558;2023-02-28T08:43:02;0.70;99.90
42913;DHT22;50720;54.324;18.558;2023-02-28T08:45:32;0.90;99.90
42913;DHT22;50720;54.324;18.558;2023-02-28T08:48:01;1.00;99.90
42913;DHT22;50720;54.324;18.558;2023-02-28T08:50:31;1.10;99.90
42913;DHT22;50720;54.324;18.558;2023-02-28T08:53:00;1.10;99.90
42913;DHT22;50720;54.324;18.558;2023-02-28T08:55:30;1.10;99.90
42913;DHT22;50720;54.324;18.558;2023-02-28T08:58:01;1.20;99.90
42913;DHT22;50720;54.324;18.558;2023-02-28T09:00:31;1.20;99.90
42913;DHT22;50720;54.324;18.558;2023-02-28T09:03:00;1.30;99.90
42913;DHT22;50720;54.324;18.558;2023-02-28T09:05:30;1.40;99.90
42913;DHT22;50720;54.324;18.558;2023-02-28T09:08:00;1.50;99.90
42913;DHT22;50720;54.324;18.558;2023-02-28T09:10:29;1.50;99.90
42913;DHT22;50720;54.324;18.558;2023-02-28T09:12:59;1.60;99.90
42913;DHT22;50720;54.324;18.558;2023-02-28T09:15:30;1.60;99.90
42913;DHT22;50720;54.324;18.558;2023-02-28T09:17:59;1.60;99.90
42913;DHT22;50720;54.324;18.558;2023-02-28T09:20:29;1.60;99.90
42913;DHT22;50720;54.324;18.558;2023-02-28T09:22:58;1.60;99.90
42913;DHT22;50720;54.324;18.558;2023-02-28T09:25:28;1.70;99.90
42913;DHT22;50720;54.324;18.558;2023-02-28T09:27:57;1.80;99.90
42913;DHT22;50720;54.324;18.558;2023-02-28T09:30:30;1.70;99.90
42913;DHT22;50720;54.324;18.558;2023-02-28T09:32:59;1.80;99.90
42913;DHT22;50720;54.324;18.558;2023-02-28T09:35:29;1.90;99.90
42913;DHT22;50720;54.324;18.558;2023-02-28T09:37:59;1.80;99.90
42913;DHT22;50720;54.324;18.558;2023-02-28T09:40:30;2.00;99.90
42913;DHT22;50720;54.324;18.558;2023-02-28T09:43:00;2.10;99.90
42913;DHT22;50720;54.324;18.558;2023-02-28T09:45:34;2.20;99.90
42913;DHT22;50720;54.324;18.558;2023-02-28T09:48:09;2.30;99.90
42913;DHT22;50720;54.324;18.558;2023-02-28T09:50:42;2.40;99.90
42913;DHT22;50720;54.324;18.558;2023-02-28T09:53:19;2.50;99.90
42913;DHT22;50720;54.324;18.558;2023-02-28T09:55:54;2.50;99.90
42913;DHT22;50720;54.324;18.558;2023-02-28T09:58:30;2.80;99.90
42913;DHT22;50720;54.324;18.558;2023-02-28T10:01:05;2.80;99.90
42913;DHT22;50720;54.324;18.558;2023-02-28T10:03:39;2.90;99.90
42913;DHT22;50720;54.324;18.558;2023-02-28T10:06:15;3.00;99.90
42913;DHT22;50720;54.324;18.558;2023-02-28T10:08:54;3.00;99.90
42913;DHT22;50720;54.324;18.558;2023-02-28T10:11:25;3.20;99.90
42913;DHT22;50720;54.324;18.558;2023-02-28T10:13:59;3.20;99.90
42913;DHT22;50720;54.324;18.558;2023-02-28T10:16:38;3.20;99.90
42913;DHT22;50720;54.324;18.558;2023-02-28T10:19:12;3.30;99.90
42913;DHT22;50720;54.324;18.558;2023-02-28T10:21:49;3.30;99.90
42913;DHT22;50720;54.324;18.558;2023-02-28T10:24:23;3.20;99.90
42913;DHT22;50720;54.324;18.558;2023-02-28T10:27:00;3.20;99.90
42913;DHT22;50720;54.324;18.558;2023-02-28T10:29:32;3.40;99.90
42913;DHT22;50720;54.324;18.558;2023-02-28T10:32:04;3.50;99.90
42913;DHT22;50720;54.324;18.558;2023-02-28T10:34:33;3.60;99.90
42913;DHT22;50720;54.324;18.558;2023-02-28T10:37:03;3.70;99.90
42913;DHT22;50720;54.324;18.558;2023-02-28T10:39:38;3.70;99.90
42913;DHT22;50720;54.324;18.558;2023-02-28T10:42:23;3.70;99.90
42913;DHT22;50720;54.324;18.558;2023-02-28T10:45:06;3.50;99.90
42913;DHT22;50720;54.324;18.558;2023-02-28T10:47:49;3.60;99.90
42913;DHT22;50720;54.324;18.558;2023-02-28T10:50:31;3.70;99.90
42913;DHT22;50720;54.324;18.558;2023-02-28T10:53:16;3.90;99.90
42913;DHT22;50720;54.324;18.558;2023-02-28T10:55:56;4.00;99.90
42913;DHT22;50720;54.324;18.558;2023-02-28T10:58:29;4.10;99.90
42913;DHT22;50720;54.324;18.558;2023-02-28T11:00:59;4.40;99.90
42913;DHT22;50720;54.324;18.558;2023-02-28T11:03:34;4.60;99.90
42913;DHT22;50720;54.324;18.558;2023-02-28T11:06:08;5.20;99.90
42913;DHT22;50720;54.324;18.558;2023-02-28T11:08:47;6.10;99.90
42913;DHT22;50720;54.324;18.558;2023-02-28T11:11:18;6.80;99.90
42913;DHT22;50720;54.324;18.558;2023-02-28T11:13:51;7.50;99.90
42913;DHT22;50720;54.324;18.558;2023-02-28T11:16:23;8.40;99.90
42913;DHT22;50720;54.324;18.558;2023-02-28T11:19:05;8.80;99.90
42913;DHT22;50720;54.324;18.558;2023-02-28T11:21:36;9.30;98.10
42913;DHT22;50720;54.324;18.558;2023-02-28T11:24:16;9.80;97.60
42913;DHT22;50720;54.324;18.558;2023-02-28T11:26:50;10.30;96.30
42913;DHT22;50720;54.324;18.558;2023-02-28T11:29:21;10.60;93.40
42913;DHT22;50720;54.324;18.558;2023-02-28T11:32:05;10.30;91.40
42913;DHT22;50720;54.324;18.558;2023-02-28T11:34:39;10.60;88.10
42913;DHT22;50720;54.324;18.558;2023-02-28T11:37:12;11.00;86.50
42913;DHT22;50720;54.324;18.558;2023-02-28T11:39:44;11.00;79.20
42913;DHT22;50720;54.324;18.558;2023-02-28T11:42:31;11.10;82.30
42913;DHT22;50720;54.324;18.558;2023-02-28T11:45:20;11.50;76.50
42913;DHT22;50720;54.324;18.558;2023-02-28T11:47:57;11.00;76.10
42913;DHT22;50720;54.324;18.558;2023-02-28T11:50:52;10.80;77.20
42913;DHT22;50720;54.324;18.558;2023-02-28T11:53:47;11.10;74.00
42913;DHT22;50720;54.324;18.558;2023-02-28T11:56:25;11.70;75.20
42913;DHT22;50720;54.324;18.558;2023-02-28T11:59:27;12.50;70.00
42913;DHT22;50720;54.324;18.558;2023-02-28T12:02:15;12.50;71.60
42913;DHT22;50720;54.324;18.558;2023-02-28T12:04:55;12.60;69.60
42913;DHT22;50720;54.324;18.558;2023-02-28T12:07:36;13.20;66.80
42913;DHT22;50720;54.324;18.558;2023-02-28T12:10:19;12.50;65.30
42913;DHT22;50720;54.324;18.558;2023-02-28T12:13:01;11.10;69.80
42913;DHT22;50720;54.324;18.558;2023-02-28T12:15:59;11.00;71.20
42913;DHT22;50720;54.324;18.558;2023-02-28T12:18:51;10.90;70.80
42913;DHT22;50720;54.324;18.558;2023-02-28T12:21:32;11.00;72.50
42913;DHT22;50720;54.324;18.558;2023-02-28T12:24:24;11.20;71.20
42913;DHT22;50720;54.324;18.558;2023-02-28T12:27:02;11.60;72.50
42913;DHT22;50720;54.324;18.558;2023-02-28T12:29:36;10.70;71.30
42913;DHT22;50720;54.324;18.558;2023-02-28T12:32:14;11.30;71.70
42913;DHT22;50720;54.324;18.558;2023-02-28T12:34:49;12.10;70.70
42913;DHT22;50720;54.324;18.558;2023-02-28T12:37:24;12.60;69.60
42913;DHT22;50720;54.324;18.558;2023-02-28T12:40:01;12.70;66.90
42913;DHT22;50720;54.324;18.558;2023-02-28T12:42:38;12.70;66.50
42913;DHT22;50720;54.324;18.558;2023-02-28T12:45:15;12.30;67.30
42913;DHT22;50720;54.324;18.558;2023-02-28T12:47:50;13.00;66.90
42913;DHT22;50720;54.324;18.558;2023-02-28T12:50:22;12.90;66.90
42913;DHT22;50720;54.324;18.558;2023-02-28T12:52:58;13.20;66.00
42913;DHT22;50720;54.324;18.558;2023-02-28T12:55:38;12.50;64.00
42913;DHT22;50720;54.324;18.558;2023-02-28T12:58:15;11.90;68.50
42913;DHT22;50720;54.324;18.558;2023-02-28T13:01:13;11.10;69.00
42913;DHT22;50720;54.324;18.558;2023-02-28T13:07:05;12.40;68.10
42913;DHT22;50720;54.324;18.558;2023-02-28T13:09:37;13.00;70.10
42913;DHT22;50720;54.324;18.558;2023-02-28T13:12:14;13.00;65.90
42913;DHT22;50720;54.324;18.558;2023-02-28T13:14:44;13.20;68.00
42913;DHT22;50720;54.324;18.558;2023-02-28T13:17:19;12.90;66.90
42913;DHT22;50720;54.324;18.558;2023-02-28T13:19:57;13.10;69.40
42913;DHT22;50720;54.324;18.558;2023-02-28T13:22:39;13.30;67.40
42913;DHT22;50720;54.324;18.558;2023-02-28T13:31:31;12.40;67.10
42913;DHT22;50720;54.324;18.558;2023-02-28T13:34:12;12.20;67.40
42913;DHT22;50720;54.324;18.558;2023-02-28T13:36:42;12.30;67.90
42913;DHT22;50720;54.324;18.558;2023-02-28T13:39:46;12.30;69.00
42913;DHT22;50720;54.324;18.558;2023-02-28T13:42:31;12.70;66.90
42913;DHT22;50720;54.324;18.558;2023-02-28T13:45:23;12.50;66.30
42913;DHT22;50720;54.324;18.558;2023-02-28T13:47:59;12.10;68.00
42913;DHT22;50720;54.324;18.558;2023-02-28T13:50:33;12.00;69.20
42913;DHT22;50720;54.324;18.558;2023-02-28T13:56:19;12.60;68.30
42913;DHT22;50720;54.324;18.558;2023-02-28T13:58:54;12.80;66.90
42913;DHT22;50720;54.324;18.558;2023-02-28T14:01:49;12.80;66.00
42913;DHT22;50720;54.324;18.558;2023-02-28T14:07:24;11.50;69.80
42913;DHT22;50720;54.324;18.558;2023-02-28T14:10:01;11.30;70.50
42913;DHT22;50720;54.324;18.558;2023-02-28T14:13:01;10.50;70.40
42913;DHT22;50720;54.324;18.558;2023-02-28T14:16:00;9.60;73.30
42913;DHT22;50720;54.324;18.558;2023-02-28T14:18:32;9.50;75.30
42913;DHT22;50720;54.324;18.558;2023-02-28T14:21:10;9.60;77.30
42913;DHT22;50720;54.324;18.558;2023-02-28T14:23:54;9.90;79.00
42913;DHT22;50720;54.324;18.558;2023-02-28T14:29:35;10.30;73.40
42913;DHT22;50720;54.324;18.558;2023-02-28T14:32:13;10.20;76.90
42913;DHT22;50720;54.324;18.558;2023-02-28T14:34:50;9.90;76.20
42913;DHT22;50720;54.324;18.558;2023-02-28T14:37:27;9.30;78.40
42913;DHT22;50720;54.324;18.558;2023-02-28T14:40:01;9.50;81.10
42913;DHT22;50720;54.324;18.558;2023-02-28T14:42:34;9.70;81.70
42913;DHT22;50720;54.324;18.558;2023-02-28T14:45:16;10.10;80.60
42913;DHT22;50720;54.324;18.558;2023-02-28T14:47:46;10.50;81.60
42913;DHT22;50720;54.324;18.558;2023-02-28T14:50:21;10.90;78.40
42913;DHT22;50720;54.324;18.558;2023-02-28T14:52:52;11.50;78.50
42913;DHT22;50720;54.324;18.558;2023-02-28T14:55:26;11.80;77.90
42913;DHT22;50720;54.324;18.558;2023-02-28T14:57:58;12.20;73.90
42913;DHT22;50720;54.324;18.558;2023-02-28T15:00:30;11.60;73.30
42913;DHT22;50720;54.324;18.558;2023-02-28T15:03:01;11.30;77.30
42913;DHT22;50720;54.324;18.558;2023-02-28T15:05:41;11.20;75.80
42913;DHT22;50720;54.324;18.558;2023-02-28T15:08:12;10.90;76.40
42913;DHT22;50720;54.324;18.558;2023-02-28T15:10:45;10.70;78.60
42913;DHT22;50720;54.324;18.558;2023-02-28T15:13:19;10.40;80.40
42913;DHT22;50720;54.324;18.558;2023-02-28T15:15:53;9.70;81.90
42913;DHT22;50720;54.324;18.558;2023-02-28T15:18:38;8.70;87.50
42913;DHT22;50720;54.324;18.558;2023-02-28T15:21:13;7.90;93.00
42913;DHT22;50720;54.324;18.558;2023-02-28T15:23:48;7.40;96.60
42913;DHT22;50720;54.324;18.558;2023-02-28T15:26:23;7.00;99.50
42913;DHT22;50720;54.324;18.558;2023-02-28T15:28:59;6.50;99.90
42913;DHT22;50720;54.324;18.558;2023-02-28T15:31:32;6.30;99.90
42913;DHT22;50720;54.324;18.558;2023-02-28T15:34:26;6.20;99.90
42913;DHT22;50720;54.324;18.558;2023-02-28T15:37:27;6.00;99.90
42913;DHT22;50720;54.324;18.558;2023-02-28T15:40:04;5.80;99.90
42913;DHT22;50720;54.324;18.558;2023-02-28T15:42:35;5.60;99.90
42913;DHT22;50720;54.324;18.558;2023-02-28T15:45:06;5.30;99.90
42913;DHT22;50720;54.324;18.558;2023-02-28T15:47:56;5.20;99.90
42913;DHT22;50720;54.324;18.558;2023-02-28T15:50:40;5.10;99.90
42913;DHT22;50720;54.324;18.558;2023-02-28T15:53:15;4.90;99.90
42913;DHT22;50720;54.324;18.558;2023-02-28T15:55:45;4.90;99.90
42913;DHT22;50720;54.324;18.558;2023-02-28T15:58:23;4.80;99.90
42913;DHT22;50720;54.324;18.558;2023-02-28T16:01:16;4.60;99.90
42913;DHT22;50720;54.324;18.558;2023-02-28T16:03:49;4.50;99.90
42913;DHT22;50720;54.324;18.558;2023-02-28T16:06:42;4.40;99.90
42913;DHT22;50720;54.324;18.558;2023-02-28T16:09:14;4.30;99.90
42913;DHT22;50720;54.324;18.558;2023-02-28T16:11:43;4.20;99.90
42913;DHT22;50720;54.324;18.558;2023-02-28T16:14:17;4.10;99.90
42913;DHT22;50720;54.324;18.558;2023-02-28T16:16:49;4.00;99.90
42913;DHT22;50720;54.324;18.558;2023-02-28T16:19:20;3.80;99.90
42913;DHT22;50720;54.324;18.558;2023-02-28T16:21:49;3.70;99.90
42913;DHT22;50720;54.324;18.558;2023-02-28T16:24:20;3.70;99.90
42913;DHT22;50720;54.324;18.558;2023-02-28T16:26:51;3.80;99.90
42913;DHT22;50720;54.324;18.558;2023-02-28T16:29:28;3.70;99.90
42913;DHT22;50720;54.324;18.558;2023-02-28T16:31:59;3.70;99.90
42913;DHT22;50720;54.324;18.558;2023-02-28T16:34:29;3.60;99.90
42913;DHT22;50720;54.324;18.558;2023-02-28T16:36:59;3.50;99.90